createdAt,value
2019-04-14T00:02:05.304Z,97.80
2019-04-14T00:04:37.861Z,97.60
2019-04-14T00:07:08.003Z,97.50
2019-04-14T00:09:38.058Z,97.70
2019-04-14T00:12:10.492Z,97.90
2019-04-14T00:14:40.637Z,97.90
2019-04-14T00:17:11.350Z,97.90
2019-04-14T00:19:41.329Z,97.80
2019-04-14T00:22:11.692Z,97.80
2019-04-14T00:24:42.444Z,97.70
2019-04-14T00:27:12.845Z,97.60
2019-04-14T00:29:43.627Z,97.50
2019-04-14T00:32:14.116Z,97.40
2019-04-14T00:34:57.536Z,97.40
2019-04-14T00:37:31.636Z,97.40
2019-04-14T00:40:10.402Z,97.40
2019-04-14T00:42:54.394Z,97.40
2019-04-14T00:45:38.275Z,97.40
2019-04-14T00:48:09.289Z,97.40
2019-04-14T00:50:34.082Z,97.30
2019-04-14T00:53:03.958Z,97.20
2019-04-14T00:55:33.723Z,97.20
2019-04-14T00:58:03.852Z,97.20
2019-04-14T01:00:34.138Z,97.30
2019-04-14T01:03:04.801Z,97.20
2019-04-14T01:05:35.961Z,97.20
2019-04-14T01:08:07.270Z,97.30
2019-04-14T01:10:37.109Z,97.30
2019-04-14T01:13:09.576Z,97.30
2019-04-14T01:15:49.218Z,97.10
2019-04-14T01:18:10.041Z,96.90
2019-04-14T01:20:40.630Z,96.90
2019-04-14T01:23:10.593Z,96.90
2019-04-14T01:25:41.044Z,96.90
2019-04-14T01:28:11.313Z,96.80
2019-04-14T01:30:41.559Z,96.80
2019-04-14T01:33:11.917Z,96.80
2019-04-14T01:35:42.151Z,96.70
2019-04-14T01:38:12.545Z,96.90
2019-04-14T01:40:44.521Z,96.90
2019-04-14T01:43:14.636Z,96.90
2019-04-14T01:45:46.162Z,97.00
2019-04-14T01:48:15.704Z,97.00
2019-04-14T01:51:05.406Z,96.90
2019-04-14T01:53:40.065Z,96.60
2019-04-14T01:56:29.813Z,96.60
2019-04-14T01:59:02.132Z,96.60
2019-04-14T02:01:42.411Z,96.30
2019-04-14T02:04:12.142Z,96.30
2019-04-14T02:06:41.973Z,96.30
2019-04-14T02:09:12.105Z,96.30
2019-04-14T02:11:51.552Z,96.40
2019-04-14T02:14:21.261Z,96.50
2019-04-14T02:16:56.115Z,96.50
2019-04-14T02:19:22.378Z,96.40
2019-04-14T02:21:52.133Z,96.20
2019-04-14T02:24:22.248Z,96.20
2019-04-14T02:26:52.643Z,96.10
2019-04-14T02:29:23.335Z,96.10
2019-04-14T02:32:33.068Z,96.20
2019-04-14T02:37:26.358Z,96.20
2019-04-14T02:39:56.044Z,96.30
2019-04-14T02:45:17.263Z,96.20
2019-04-14T02:47:55.028Z,96.40
2019-04-14T02:52:47.258Z,96.20
2019-04-14T02:55:10.829Z,96.20
2019-04-14T02:57:47.638Z,96.20
2019-04-14T03:00:23.940Z,96.10
2019-04-14T03:02:44.146Z,96.00
2019-04-14T03:05:16.368Z,96.00
2019-04-14T03:07:54.452Z,96.00
2019-04-14T03:12:57.925Z,96.00
2019-04-14T03:15:27.959Z,95.90
2019-04-14T03:20:39.556Z,95.90
2019-04-14T03:23:26.256Z,95.90
2019-04-14T03:25:49.822Z,95.80
2019-04-14T03:28:36.535Z,95.50
2019-04-14T03:31:33.242Z,95.50
2019-04-14T03:34:08.193Z,95.60
2019-04-14T03:38:34.445Z,95.50
2019-04-14T03:41:16.491Z,95.40
2019-04-14T03:46:21.367Z,95.30
2019-04-14T03:51:18.949Z,95.20
2019-04-14T03:54:36.348Z,95.00
2019-04-14T03:56:49.138Z,95.10
2019-04-14T03:59:19.610Z,95.10
2019-04-14T04:01:50.080Z,95.20
2019-04-14T04:04:20.568Z,95.40
2019-04-14T04:06:59.666Z,95.50
2019-04-14T04:09:32.100Z,95.70
2019-04-14T04:12:03.031Z,95.50
2019-04-14T04:14:36.167Z,95.60
2019-04-14T04:17:07.955Z,95.70
2019-04-14T04:19:42.615Z,95.80
2019-04-14T04:22:32.579Z,95.70
2019-04-14T04:25:22.607Z,95.60
2019-04-14T04:27:59.768Z,95.30
2019-04-14T04:30:43.046Z,95.10
2019-04-14T04:33:20.458Z,95.20
2019-04-14T04:35:58.610Z,95.20
2019-04-14T04:38:33.961Z,95.20
2019-04-14T04:41:03.802Z,95.40
2019-04-14T04:43:34.531Z,94.80
2019-04-14T04:46:04.841Z,94.70
2019-04-14T04:48:34.924Z,95.00
2019-04-14T04:51:07.093Z,95.00
2019-04-14T04:53:37.830Z,95.10
2019-04-14T04:56:08.004Z,95.00
2019-04-14T04:58:37.834Z,94.90
2019-04-14T05:01:09.931Z,94.40
2019-04-14T05:03:40.705Z,94.10
2019-04-14T05:06:31.022Z,94.20
2019-04-14T05:09:18.928Z,94.40
2019-04-14T05:12:06.756Z,94.60
2019-04-14T05:14:54.537Z,94.40
2019-04-14T05:17:25.794Z,94.10
2019-04-14T05:19:56.240Z,94.10
2019-04-14T05:22:26.764Z,94.30
2019-04-14T05:24:57.206Z,93.90
2019-04-14T05:27:27.612Z,94.00
2019-04-14T05:29:58.036Z,94.10
2019-04-14T05:32:28.370Z,94.20
2019-04-14T05:34:58.703Z,93.90
2019-04-14T05:37:29.021Z,93.50
2019-04-14T05:39:59.371Z,93.10
2019-04-14T05:42:34.084Z,93.00
2019-04-14T05:45:04.816Z,93.20
2019-04-14T05:47:35.002Z,93.10
2019-04-14T05:50:07.352Z,93.10
2019-04-14T05:52:38.261Z,92.40
2019-04-14T05:55:08.885Z,92.60
2019-04-14T05:57:39.484Z,92.30
2019-04-14T06:00:12.364Z,92.70
2019-04-14T06:02:42.279Z,92.70
2019-04-14T06:05:13.036Z,92.50
2019-04-14T06:07:43.146Z,92.20
2019-04-14T06:10:12.854Z,92.20
2019-04-14T06:12:42.578Z,92.10
2019-04-14T06:15:12.330Z,91.80
2019-04-14T06:17:42.039Z,91.50
2019-04-14T06:20:12.109Z,91.60
2019-04-14T06:22:41.926Z,91.30
2019-04-14T06:25:11.648Z,90.90
2019-04-14T06:27:41.370Z,90.90
2019-04-14T06:30:18.698Z,90.60
2019-04-14T06:32:49.416Z,90.80
2019-04-14T06:35:24.038Z,91.00
2019-04-14T06:38:01.265Z,90.60
2019-04-14T06:40:32.583Z,90.20
2019-04-14T06:43:02.310Z,90.10
2019-04-14T06:45:32.071Z,89.50
2019-04-14T06:48:01.779Z,88.40
2019-04-14T06:50:31.487Z,89.10
2019-04-14T06:53:01.266Z,88.90
2019-04-14T06:55:30.980Z,88.90
2019-04-14T06:58:00.705Z,87.00
2019-04-14T07:00:30.429Z,86.10
2019-04-14T07:03:00.147Z,86.80
2019-04-14T07:05:29.898Z,86.50
2019-04-14T07:07:59.613Z,87.10
2019-04-14T07:10:29.342Z,85.80
2019-04-14T07:12:59.069Z,85.70
2019-04-14T07:15:28.821Z,86.70
2019-04-14T07:17:58.553Z,85.30
2019-04-14T07:20:28.280Z,83.40
2019-04-14T07:22:57.995Z,85.00
2019-04-14T07:25:27.714Z,82.80
2019-04-14T07:27:58.443Z,79.90
2019-04-14T07:30:35.906Z,79.00
2019-04-14T07:33:07.224Z,75.10
2019-04-14T07:35:38.551Z,74.00
2019-04-14T07:38:18.878Z,74.70
2019-04-14T07:41:05.457Z,74.50
2019-04-14T07:43:36.740Z,73.50
2019-04-14T07:46:14.195Z,72.80
2019-04-14T07:48:48.530Z,75.00
2019-04-14T07:51:28.806Z,73.60
2019-04-14T07:54:00.118Z,72.20
2019-04-14T07:56:34.491Z,73.10
2019-04-14T07:59:05.884Z,74.70
2019-04-14T08:01:37.227Z,71.70
2019-04-14T08:04:11.637Z,69.30
2019-04-14T08:06:42.960Z,64.50
2019-04-14T08:09:12.675Z,65.90
2019-04-14T08:11:42.322Z,67.90
2019-04-14T08:14:12.042Z,63.40
2019-04-14T08:16:41.806Z,62.10
2019-04-14T08:19:11.535Z,63.80
2019-04-14T08:21:41.263Z,61.50
2019-04-14T08:24:10.989Z,60.90
2019-04-14T08:26:40.735Z,59.90
2019-04-14T08:29:10.399Z,58.70
2019-04-14T08:31:40.379Z,59.30
2019-04-14T08:34:10.072Z,59.00
2019-04-14T08:36:39.784Z,59.60
2019-04-14T08:39:09.619Z,61.40
2019-04-14T08:41:41.936Z,62.30
2019-04-14T08:44:13.266Z,60.20
2019-04-14T08:46:47.281Z,59.60
2019-04-14T08:49:18.626Z,59.60
2019-04-14T08:51:58.986Z,59.40
2019-04-14T08:54:42.579Z,58.90
2019-04-14T08:57:13.892Z,59.40
2019-04-14T08:59:45.222Z,58.40
2019-04-14T09:02:16.563Z,58.50
2019-04-14T09:04:48.923Z,57.50
2019-04-14T09:07:32.426Z,56.40
2019-04-14T09:10:06.574Z,56.80
2019-04-14T09:12:37.872Z,56.10
2019-04-14T09:15:08.026Z,56.50
2019-04-14T09:17:37.767Z,56.60
2019-04-14T09:20:07.592Z,56.90
2019-04-14T09:22:37.319Z,56.60
2019-04-14T09:25:07.038Z,55.10
2019-04-14T09:27:36.839Z,53.70
2019-04-14T09:30:08.453Z,54.10
2019-04-14T09:32:38.138Z,55.00
2019-04-14T09:35:08.259Z,54.80
2019-04-14T09:37:38.043Z,52.20
2019-04-14T09:40:07.958Z,51.70
2019-04-14T09:42:37.954Z,52.20
2019-04-14T09:45:08.074Z,54.00
2019-04-14T09:47:37.800Z,52.30
2019-04-14T09:50:07.660Z,52.10
2019-04-14T09:52:37.378Z,50.60
2019-04-14T09:55:07.347Z,50.20
2019-04-14T09:57:37.200Z,50.10
2019-04-14T10:00:07.463Z,49.80
2019-04-14T10:02:38.300Z,50.10
2019-04-14T10:05:08.159Z,50.20
2019-04-14T10:07:37.893Z,49.40
2019-04-14T10:10:07.874Z,50.40
2019-04-14T10:12:37.594Z,50.60
2019-04-14T10:15:07.419Z,49.90
2019-04-14T10:17:37.135Z,49.30
2019-04-14T10:20:06.953Z,50.20
2019-04-14T10:22:36.702Z,50.00
2019-04-14T10:25:06.516Z,48.10
2019-04-14T10:27:36.575Z,50.60
2019-04-14T10:30:08.028Z,49.20
2019-04-14T10:32:37.781Z,49.40
2019-04-14T10:35:08.912Z,48.50
2019-04-14T10:37:38.651Z,49.10
2019-04-14T10:40:08.576Z,48.70
2019-04-14T10:42:39.379Z,47.90
2019-04-14T10:45:09.603Z,48.40
2019-04-14T10:47:39.451Z,47.30
2019-04-14T10:50:09.387Z,47.20
2019-04-14T10:52:39.154Z,48.10
2019-04-14T10:55:08.987Z,47.40
2019-04-14T10:57:38.732Z,47.90
2019-04-14T11:00:11.330Z,47.90
2019-04-14T11:02:41.197Z,48.60
2019-04-14T11:05:11.004Z,50.30
2019-04-14T11:07:40.867Z,47.50
2019-04-14T11:10:11.286Z,47.20
2019-04-14T11:12:41.248Z,49.70
2019-04-14T11:15:11.173Z,49.10
2019-04-14T11:17:40.936Z,49.80
2019-04-14T11:20:11.158Z,48.30
2019-04-14T11:22:41.171Z,47.30
2019-04-14T11:25:10.891Z,49.50
2019-04-14T11:27:40.631Z,47.50
2019-04-14T11:30:13.398Z,48.10
2019-04-14T11:32:44.727Z,47.20
2019-04-14T11:35:32.510Z,45.10
2019-04-14T11:38:06.832Z,43.50
2019-04-14T11:40:44.116Z,46.30
2019-04-14T11:43:13.862Z,44.00
2019-04-14T11:45:43.597Z,41.10
2019-04-14T11:48:13.332Z,43.30
2019-04-14T11:50:43.066Z,43.90
2019-04-14T11:53:12.798Z,44.20
2019-04-14T11:55:43.523Z,42.00
2019-04-14T11:58:14.204Z,41.90
2019-04-14T12:00:45.510Z,38.40
2019-04-14T12:03:16.844Z,39.20
2019-04-14T12:05:51.295Z,40.40
2019-04-14T12:08:40.718Z,37.00
2019-04-14T12:11:10.441Z,36.60
2019-04-14T12:13:40.187Z,38.00
2019-04-14T12:16:09.909Z,39.00
2019-04-14T12:18:39.640Z,38.30
2019-04-14T12:21:09.361Z,39.50
2019-04-14T12:23:39.115Z,37.70
2019-04-14T12:26:08.834Z,36.10
2019-04-14T12:28:38.575Z,37.90
2019-04-14T12:31:08.761Z,38.10
2019-04-14T12:33:38.416Z,37.00
2019-04-14T12:36:11.187Z,36.80
2019-04-14T12:38:41.935Z,37.80
2019-04-14T12:41:13.580Z,36.20
2019-04-14T12:44:01.073Z,37.10
2019-04-14T12:46:38.179Z,36.20
2019-04-14T12:49:12.187Z,36.10
2019-04-14T12:51:56.753Z,37.20
2019-04-14T12:54:27.429Z,37.00
2019-04-14T12:56:57.153Z,36.30
2019-04-14T12:59:27.138Z,36.60
2019-04-14T13:01:58.752Z,36.70
2019-04-14T13:04:28.508Z,37.20
2019-04-14T13:06:58.227Z,36.00
2019-04-14T13:09:28.000Z,35.10
2019-04-14T13:11:57.726Z,34.60
2019-04-14T13:14:27.455Z,36.90
2019-04-14T13:16:57.174Z,34.20
2019-04-14T13:19:27.995Z,35.80
2019-04-14T13:21:57.758Z,32.80
2019-04-14T13:24:27.483Z,35.10
2019-04-14T13:26:57.242Z,35.50
2019-04-14T13:29:26.966Z,34.30
2019-04-14T13:31:56.697Z,34.30
2019-04-14T13:34:26.427Z,34.80
2019-04-14T13:36:56.134Z,35.70
2019-04-14T13:39:25.826Z,36.50
2019-04-14T13:41:55.531Z,36.70
2019-04-14T13:44:25.259Z,36.00
2019-04-14T13:46:54.978Z,37.30
2019-04-14T13:49:24.694Z,36.80
2019-04-14T13:51:54.447Z,35.80
2019-04-14T13:54:24.098Z,36.60
2019-04-14T13:56:53.754Z,37.30
2019-04-14T13:59:23.471Z,36.50
2019-04-14T14:01:53.189Z,35.80
2019-04-14T14:04:23.027Z,36.40
2019-04-14T14:06:52.745Z,35.30
2019-04-14T14:09:22.515Z,36.80
2019-04-14T14:11:59.871Z,35.60
2019-04-14T14:14:47.443Z,36.90
2019-04-14T14:17:35.500Z,37.50
2019-04-14T14:20:17.334Z,36.50
2019-04-14T14:22:58.692Z,36.20
2019-04-14T14:25:37.590Z,36.30
2019-04-14T14:28:07.232Z,36.10
2019-04-14T14:30:36.978Z,37.20
2019-04-14T14:33:06.700Z,37.00
2019-04-14T14:35:36.415Z,37.40
2019-04-14T14:38:06.135Z,37.40
2019-04-14T14:40:35.907Z,37.40
2019-04-14T14:43:05.639Z,36.60
2019-04-14T14:45:45.940Z,37.70
2019-04-14T14:48:17.235Z,37.10
2019-04-14T14:51:00.780Z,37.30
2019-04-14T14:53:30.507Z,35.80
2019-04-14T14:56:00.154Z,35.20
2019-04-14T14:58:29.878Z,34.20
2019-04-14T15:00:59.604Z,33.20
2019-04-14T15:03:29.347Z,33.50
2019-04-14T15:05:59.077Z,33.70
2019-04-14T15:08:28.853Z,33.40
2019-04-14T15:10:58.567Z,32.50
2019-04-14T15:13:28.225Z,32.70
2019-04-14T15:15:57.934Z,32.40
2019-04-14T15:18:27.575Z,32.10
2019-04-14T15:20:57.612Z,33.40
2019-04-14T15:23:27.335Z,34.20
2019-04-14T15:25:57.099Z,33.20
2019-04-14T15:28:26.823Z,33.70
2019-04-14T15:30:56.546Z,34.00
2019-04-14T15:33:26.264Z,33.60
2019-04-14T15:35:56.178Z,34.40
2019-04-14T15:38:25.927Z,34.90
2019-04-14T15:40:55.659Z,34.90
2019-04-14T15:43:26.439Z,35.00
2019-04-14T15:45:56.150Z,34.60
2019-04-14T15:48:25.910Z,35.70
2019-04-14T15:50:55.622Z,35.30
2019-04-14T15:53:37.401Z,33.90
2019-04-14T15:55:56.892Z,34.10
2019-04-14T15:58:30.947Z,33.90
2019-04-14T16:01:18.479Z,34.30
2019-04-14T16:03:55.648Z,32.80
2019-04-14T16:06:30.001Z,30.90
2019-04-14T16:09:01.360Z,30.50
2019-04-14T16:11:40.334Z,30.30
2019-04-14T16:14:24.006Z,30.60
2019-04-14T16:17:04.035Z,30.10
2019-04-14T16:19:50.682Z,30.00
2019-04-14T16:22:20.403Z,29.50
2019-04-14T16:24:50.454Z,28.80
2019-04-14T16:27:40.059Z,28.80
2019-04-14T16:30:26.908Z,28.90
2019-04-14T16:33:13.476Z,28.90
2019-04-14T16:35:44.435Z,29.10
2019-04-14T16:38:14.156Z,28.60
2019-04-14T16:40:43.907Z,28.80
2019-04-14T16:43:13.623Z,28.90
2019-04-14T16:45:43.350Z,28.90
2019-04-14T16:48:13.008Z,28.90
2019-04-14T16:50:42.741Z,29.50
2019-04-14T16:53:14.042Z,29.70
2019-04-14T16:55:48.579Z,30.40
2019-04-14T16:58:19.900Z,30.90
2019-04-14T17:00:51.186Z,31.40
2019-04-14T17:03:20.955Z,31.50
2019-04-14T17:05:50.683Z,31.70
2019-04-14T17:08:20.407Z,32.20
2019-04-14T17:10:50.170Z,32.60
2019-04-14T17:13:19.898Z,33.10
2019-04-14T17:16:07.688Z,34.30
2019-04-14T17:18:53.678Z,34.90
2019-04-14T17:21:33.896Z,35.60
2019-04-14T17:24:16.775Z,35.40
2019-04-14T17:26:56.071Z,35.60
2019-04-14T17:29:45.489Z,35.80
2019-04-14T17:32:19.246Z,36.00
2019-04-14T17:35:07.244Z,36.90
2019-04-14T17:37:47.730Z,38.00
2019-04-14T17:40:34.116Z,38.10
2019-04-14T17:43:08.315Z,38.30
2019-04-14T17:45:39.538Z,38.80
2019-04-14T17:48:13.946Z,39.70
2019-04-14T17:50:54.155Z,40.30
2019-04-14T17:53:28.643Z,40.50
2019-04-14T17:56:02.920Z,40.40
2019-04-14T17:58:36.958Z,40.80
2019-04-14T18:01:08.172Z,41.30
2019-04-14T18:03:42.218Z,41.70
2019-04-14T18:06:17.383Z,42.00
2019-04-14T18:08:49.823Z,42.40
2019-04-14T18:11:30.139Z,42.70
2019-04-14T18:14:17.853Z,43.00
2019-04-14T18:17:05.625Z,43.20
2019-04-14T18:19:48.911Z,43.90
2019-04-14T18:22:18.631Z,43.10
2019-04-14T18:24:48.352Z,43.50
2019-04-14T18:27:18.094Z,43.50
2019-04-14T18:29:49.410Z,43.80
2019-04-14T18:32:32.951Z,43.60
2019-04-14T18:35:04.272Z,43.50
2019-04-14T18:37:35.546Z,44.30
2019-04-14T18:40:16.443Z,44.20
2019-04-14T18:43:04.955Z,43.80
2019-04-14T18:45:36.294Z,43.70
2019-04-14T18:48:16.994Z,43.70
2019-04-14T18:51:04.294Z,43.60
2019-04-14T18:53:35.583Z,44.30
2019-04-14T18:56:09.642Z,43.90
2019-04-14T18:58:45.118Z,44.10
2019-04-14T19:01:16.924Z,44.50
2019-04-14T19:03:47.427Z,44.60
2019-04-14T19:06:18.178Z,44.80
2019-04-14T19:08:49.515Z,44.70
2019-04-14T19:11:36.873Z,45.20
2019-04-14T19:14:08.321Z,45.30
2019-04-14T19:16:40.246Z,45.80
2019-04-14T19:19:11.142Z,45.80
2019-04-14T19:21:41.010Z,46.00
2019-04-14T19:24:12.269Z,46.30
2019-04-14T19:26:42.108Z,46.30
2019-04-14T19:29:11.798Z,46.10
2019-04-14T19:31:41.714Z,47.00
2019-04-14T19:34:11.438Z,47.10
2019-04-14T19:36:42.190Z,47.50
2019-04-14T19:39:11.910Z,47.80
2019-04-14T19:41:41.966Z,48.20
2019-04-14T19:44:11.682Z,48.60
2019-04-14T19:46:41.363Z,48.80
2019-04-14T19:49:11.077Z,49.00
2019-04-14T19:51:40.748Z,48.30
2019-04-14T19:54:10.490Z,48.40
2019-04-14T19:56:40.308Z,48.90
2019-04-14T19:59:10.016Z,49.10
2019-04-14T20:01:39.705Z,49.50
2019-04-14T20:04:09.429Z,49.50
2019-04-14T20:06:39.920Z,49.10
2019-04-14T20:09:09.640Z,49.60
2019-04-14T20:11:39.789Z,49.90
2019-04-14T20:14:09.502Z,50.10
2019-04-14T20:16:46.650Z,49.90
2019-04-14T20:19:29.865Z,49.90
2019-04-14T20:22:03.910Z,49.50
2019-04-14T20:24:37.899Z,50.10
2019-04-14T20:27:11.642Z,50.20
2019-04-14T20:29:55.022Z,50.60
2019-04-14T20:32:36.427Z,50.40
2019-04-14T20:35:07.742Z,51.00
2019-04-14T20:37:37.486Z,50.90
2019-04-14T20:40:07.406Z,51.10
2019-04-14T20:42:37.083Z,50.70
2019-04-14T20:45:09.771Z,50.70
2019-04-14T20:47:39.416Z,50.80
2019-04-14T20:50:09.222Z,51.10
2019-04-14T20:52:38.852Z,51.60
2019-04-14T20:55:09.162Z,52.40
2019-04-14T20:57:38.938Z,53.30
2019-04-14T21:00:09.157Z,54.20
2019-04-14T21:02:41.991Z,55.60
2019-04-14T21:05:31.642Z,56.40
2019-04-14T21:08:19.044Z,57.30
2019-04-14T21:11:05.024Z,58.40
2019-04-14T21:13:39.015Z,58.50
2019-04-14T21:16:13.208Z,59.30
2019-04-14T21:18:44.578Z,59.30
2019-04-14T21:21:27.748Z,59.90
2019-04-14T21:24:04.839Z,60.50
2019-04-14T21:26:46.210Z,60.70
2019-04-14T21:29:17.491Z,61.20
2019-04-14T21:32:04.954Z,61.20
2019-04-14T21:34:54.621Z,61.50
2019-04-14T21:37:34.606Z,61.90
2019-04-14T21:40:23.037Z,62.00
2019-04-14T21:42:52.792Z,62.60
2019-04-14T21:45:22.499Z,63.30
2019-04-14T21:47:52.218Z,63.60
2019-04-14T21:50:21.942Z,64.30
2019-04-14T21:52:51.670Z,64.30
2019-04-14T21:55:21.399Z,64.80
2019-04-14T21:57:55.674Z,65.80
2019-04-14T22:01:13.641Z,66.60
2019-04-14T22:03:57.021Z,66.60
2019-04-14T22:06:28.296Z,66.60
2019-04-14T22:08:58.058Z,67.10
2019-04-14T22:11:27.979Z,67.70
2019-04-14T22:13:57.695Z,68.10
2019-04-14T22:16:28.106Z,68.20
2019-04-14T22:18:58.095Z,68.20
2019-04-14T22:21:27.799Z,68.80
2019-04-14T22:24:01.718Z,69.30
2019-04-14T22:26:28.863Z,69.20
2019-04-14T22:28:58.574Z,68.90
2019-04-14T22:31:28.338Z,69.00
2019-04-14T22:33:58.058Z,69.20
2019-04-14T22:36:27.806Z,69.60
2019-04-14T22:38:57.444Z,68.60
2019-04-14T22:41:27.174Z,68.20
2019-04-14T22:43:56.963Z,66.50
2019-04-14T22:46:26.598Z,65.90
2019-04-14T22:48:57.287Z,63.50
2019-04-14T22:51:27.004Z,63.60
2019-04-14T22:53:56.718Z,63.90
2019-04-14T22:56:38.538Z,61.20
2019-04-14T22:58:57.833Z,60.50
2019-04-14T23:01:29.115Z,60.90
2019-04-14T23:04:06.544Z,59.40
2019-04-14T23:06:54.010Z,59.00
2019-04-14T23:09:34.306Z,59.20
2019-04-14T23:12:08.114Z,60.60
2019-04-14T23:14:57.487Z,62.80
2019-04-14T23:17:28.771Z,64.30
2019-04-14T23:20:03.026Z,65.80
2019-04-14T23:22:46.295Z,66.70
2019-04-14T23:25:16.035Z,67.30
2019-04-14T23:27:45.758Z,67.90
2019-04-14T23:30:15.473Z,67.80
2019-04-14T23:32:45.203Z,68.10
2019-04-14T23:35:14.910Z,68.70
2019-04-14T23:37:44.685Z,68.70
2019-04-14T23:40:14.872Z,70.40
2019-04-14T23:42:44.629Z,70.10
2019-04-14T23:45:14.632Z,70.40
2019-04-14T23:47:44.371Z,69.50
2019-04-14T23:50:14.197Z,70.00
2019-04-14T23:52:43.962Z,69.60
2019-04-14T23:55:14.281Z,71.40
2019-04-14T23:57:43.999Z,70.40
